Time;durP1;ratioP1;P1;durP2;ratioP2;P2;SDS_P1;SDS_P2;PMS_P1;PMS_P2;Temp;Humidity;BMP_temperature;BMP_pressure;BME280_temperature;BME280_humidity;BME280_pressure;Samples;Min_cycle;Max_cycle;Signal;HPM_P1;HPM_P2
2024/01/07 00:02:09;;;;;;;18.40;12.60;;;;;;;;;;5111726;27;20059;-60
2024/01/07 00:04:35;;;;;;;17.85;11.93;;;;;;;;;;5102945;27;20506;-60
2024/01/07 00:07:06;;;;;;;18.35;12.18;;;;;;;;;;5102098;27;20502;-60
2024/01/07 00:09:32;;;;;;;19.70;12.52;;;;;;;;;;5092512;27;20056;-61
2024/01/07 00:11:59;;;;;;;16.10;11.20;;;;;;;;;;5103011;27;20527;-61
2024/01/07 00:14:26;;;;;;;19.67;12.52;;;;;;;;;;5103575;27;20054;-60
2024/01/07 00:16:52;;;;;;;16.77;11.85;;;;;;;;;;5101281;28;20530;-59
2024/01/07 00:19:19;;;;;;;19.35;11.85;;;;;;;;;;5102263;27;20553;-60
2024/01/07 00:21:46;;;;;;;18.08;11.93;;;;;;;;;;5102592;27;20876;-61
2024/01/07 00:24:12;;;;;;;17.02;12.32;;;;;;;;;;5103845;27;20044;-61
2024/01/07 00:26:39;;;;;;;16.60;12.18;;;;;;;;;;5102209;27;20522;-61
2024/01/07 00:29:05;;;;;;;16.38;13.00;;;;;;;;;;5102380;27;20055;-61
2024/01/07 00:31:32;;;;;;;18.17;12.70;;;;;;;;;;5101346;27;20059;-61
2024/01/07 00:33:59;;;;;;;16.42;11.57;;;;;;;;;;5102058;27;20052;-60
2024/01/07 00:36:25;;;;;;;17.30;12.30;;;;;;;;;;5102298;27;20082;-60
2024/01/07 00:38:52;;;;;;;15.55;11.30;;;;;;;;;;5101052;28;20131;-61
2024/01/07 00:41:18;;;;;;;18.92;12.20;;;;;;;;;;5102297;28;20510;-61
2024/01/07 00:43:46;;;;;;;17.65;12.60;;;;;;;;;;5102037;27;20129;-60
2024/01/07 00:46:13;;;;;;;17.70;11.48;;;;;;;;;;5102448;27;20499;-60
2024/01/07 00:48:39;;;;;;;15.98;11.32;;;;;;;;;;5101521;27;20541;-60
2024/01/07 00:51:06;;;;;;;17.88;11.50;;;;;;;;;;5102034;27;20132;-60
2024/01/07 00:53:32;;;;;;;16.55;11.85;;;;;;;;;;5101180;28;20325;-60
2024/01/07 00:55:59;;;;;;;14.27;10.82;;;;;;;;;;5102072;27;20087;-60
2024/01/07 00:58:25;;;;;;;14.90;10.05;;;;;;;;;;5101361;27;20072;-60
2024/01/07 01:00:53;;;;;;;15.32;10.63;;;;;;;;;;5102537;27;20482;-60
2024/01/07 01:03:22;;;;;;;15.23;11.15;;;;;;;;;;5100759;27;20064;-60
2024/01/07 01:05:49;;;;;;;15.90;11.55;;;;;;;;;;5101816;27;20059;-60
2024/01/07 01:08:16;;;;;;;14.57;10.50;;;;;;;;;;5102638;27;20588;-60
2024/01/07 01:10:42;;;;;;;13.52;10.20;;;;;;;;;;5100987;27;20607;-60
2024/01/07 01:13:09;;;;;;;15.63;10.95;;;;;;;;;;5105068;28;20502;-61
2024/01/07 01:15:35;;;;;;;16.33;10.88;;;;;;;;;;5105243;28;20087;-59
2024/01/07 01:18:02;;;;;;;15.07;10.60;;;;;;;;;;5105525;27;20052;-60
2024/01/07 01:20:29;;;;;;;14.88;10.23;;;;;;;;;;5103692;28;20052;-61
2024/01/07 01:22:55;;;;;;;16.05;11.27;;;;;;;;;;5104952;27;20513;-61
2024/01/07 01:25:22;;;;;;;16.25;11.05;;;;;;;;;;5104903;28;20153;-61
2024/01/07 01:27:49;;;;;;;18.02;12.50;;;;;;;;;;5105341;27;20048;-61
2024/01/07 01:30:16;;;;;;;17.55;11.77;;;;;;;;;;5104697;27;20571;-60
2024/01/07 01:32:43;;;;;;;19.95;13.95;;;;;;;;;;5104521;28;20067;-58
2024/01/07 01:35:09;;;;;;;19.02;12.48;;;;;;;;;;5105455;28;20166;-61
2024/01/07 01:37:35;;;;;;;18.98;12.90;;;;;;;;;;5105062;27;20719;-60
2024/01/07 01:40:03;;;;;;;20.60;12.80;;;;;;;;;;5105936;28;20083;-60
2024/01/07 01:42:30;;;;;;;21.17;13.70;;;;;;;;;;5104402;27;20125;-61
2024/01/07 01:44:59;;;;;;;18.70;12.45;;;;;;;;;;5104807;27;20067;-60
2024/01/07 01:47:26;;;;;;;21.30;13.48;;;;;;;;;;5104633;28;20494;-61
2024/01/07 01:49:52;;;;;;;18.88;13.13;;;;;;;;;;5105440;27;20286;-58
2024/01/07 01:52:19;;;;;;;22.83;13.85;;;;;;;;;;5104741;27;20059;-61
2024/01/07 01:54:46;;;;;;;20.70;13.82;;;;;;;;;;5104465;27;20048;-58
2024/01/07 01:57:15;;;;;;;21.13;13.43;;;;;;;;;;5103650;27;20213;-60
2024/01/07 01:59:42;;;;;;;18.92;13.13;;;;;;;;;;5105108;27;20109;-60
2024/01/07 02:02:09;;;;;;;23.77;15.02;;;;;;;;;;5104842;28;20478;-60
2024/01/07 02:04:35;;;;;;;21.60;13.38;;;;;;;;;;5104802;27;20062;-60
2024/01/07 02:07:02;;;;;;;20.85;13.60;;;;;;;;;;5104097;27;20498;-60
2024/01/07 02:09:28;;;;;;;18.63;13.65;;;;;;;;;;5104324;27;20390;-61
2024/01/07 02:12:02;;;;;;;21.85;14.43;;;;;;;;;;5105453;27;20139;-60
2024/01/07 02:14:28;;;;;;;23.33;14.45;;;;;;;;;;5104271;27;20056;-61
2024/01/07 02:16:54;;;;;;;26.83;15.63;;;;;;;;;;5103977;27;20056;-60
2024/01/07 02:19:21;;;;;;;24.15;15.32;;;;;;;;;;5103816;28;20101;-60
2024/01/07 02:21:50;;;;;;;25.45;15.23;;;;;;;;;;5105299;27;20611;-60
2024/01/07 02:24:17;;;;;;;21.48;14.55;;;;;;;;;;5106843;27;20058;-61
2024/01/07 02:26:43;;;;;;;21.38;15.40;;;;;;;;;;5105797;27;20048;-60
2024/01/07 02:29:09;;;;;;;24.30;14.70;;;;;;;;;;5106551;27;20048;-60
2024/01/07 02:31:36;;;;;;;21.83;14.40;;;;;;;;;;5103749;27;20052;-60
2024/01/07 02:34:02;;;;;;;20.60;14.00;;;;;;;;;;5105726;27;20060;-60
2024/01/07 02:36:29;;;;;;;21.77;14.25;;;;;;;;;;5103521;27;20571;-59
2024/01/07 02:38:55;;;;;;;19.50;13.43;;;;;;;;;;5104386;27;20056;-60
2024/01/07 02:41:25;;;;;;;17.30;11.95;;;;;;;;;;5104319;27;20097;-60
2024/01/07 02:43:51;;;;;;;21.45;14.10;;;;;;;;;;5104817;27;20052;-60
2024/01/07 02:46:19;;;;;;;22.23;14.32;;;;;;;;;;5103070;28;20121;-60
2024/01/07 02:48:45;;;;;;;21.33;13.13;;;;;;;;;;5103961;27;20585;-61
2024/01/07 02:51:12;;;;;;;19.02;12.68;;;;;;;;;;5104154;27;20106;-60
2024/01/07 02:53:38;;;;;;;18.88;13.38;;;;;;;;;;5104772;27;20056;-60
2024/01/07 02:56:05;;;;;;;21.63;14.13;;;;;;;;;;5104115;27;20087;-60
2024/01/07 02:58:31;;;;;;;19.98;13.60;;;;;;;;;;5103617;27;20056;-60
2024/01/07 03:00:57;;;;;;;21.08;13.93;;;;;;;;;;5102866;28;20054;-60
2024/01/07 03:03:24;;;;;;;23.60;14.05;;;;;;;;;;5103297;27;20577;-60
2024/01/07 03:05:51;;;;;;;18.95;13.93;;;;;;;;;;5104950;27;20079;-60
2024/01/07 03:08:17;;;;;;;20.27;13.52;;;;;;;;;;5103847;27;20052;-60
2024/01/07 03:10:44;;;;;;;21.23;13.65;;;;;;;;;;5103132;27;20571;-59
2024/01/07 03:13:11;;;;;;;20.58;13.57;;;;;;;;;;5103763;27;20106;-58
2024/01/07 03:15:37;;;;;;;19.35;13.93;;;;;;;;;;5084155;28;20139;-60
2024/01/07 03:18:04;;;;;;;21.85;13.93;;;;;;;;;;5100648;28;20056;-60
2024/01/07 03:20:31;;;;;;;23.15;14.63;;;;;;;;;;5103961;27;20056;-60
2024/01/07 03:22:59;;;;;;;23.33;14.68;;;;;;;;;;5103711;27;20052;-61
2024/01/07 03:25:26;;;;;;;21.83;14.98;;;;;;;;;;5083638;28;20102;-60
2024/01/07 03:27:53;;;;;;;20.85;14.20;;;;;;;;;;5102661;28;20048;-58
2024/01/07 03:30:19;;;;;;;22.70;15.18;;;;;;;;;;5103696;27;20106;-60
2024/01/07 03:32:45;;;;;;;19.63;14.15;;;;;;;;;;5102730;27;20052;-60
2024/01/07 03:35:12;;;;;;;23.80;15.90;;;;;;;;;;5102867;28;20637;-60
2024/01/07 03:37:39;;;;;;;21.90;14.13;;;;;;;;;;5104558;27;20056;-60
2024/01/07 03:40:09;;;;;;;24.10;15.15;;;;;;;;;;5103213;27;20125;-61
2024/01/07 03:42:36;;;;;;;23.67;14.45;;;;;;;;;;5103699;27;20099;-60
2024/01/07 03:45:02;;;;;;;24.17;14.60;;;;;;;;;;5103191;28;20525;-60
2024/01/07 03:47:30;;;;;;;24.02;15.48;;;;;;;;;;5103494;27;20135;-60
2024/01/07 03:49:56;;;;;;;19.52;13.52;;;;;;;;;;5103040;28;20280;-60
2024/01/07 03:52:23;;;;;;;25.27;14.82;;;;;;;;;;5102876;27;20118;-59
2024/01/07 03:54:49;;;;;;;23.50;14.45;;;;;;;;;;5103081;27;20079;-61
2024/01/07 03:57:15;;;;;;;23.05;14.85;;;;;;;;;;5103568;27;20056;-60
2024/01/07 03:59:42;;;;;;;24.40;14.75;;;;;;;;;;5103291;27;20155;-58
2024/01/07 04:02:08;;;;;;;26.08;16.23;;;;;;;;;;5103412;27;20051;-61
2024/01/07 04:04:35;;;;;;;26.92;16.13;;;;;;;;;;5102445;27;20544;-61
2024/01/07 04:07:02;;;;;;;24.15;15.68;;;;;;;;;;5102105;27;20522;-61
2024/01/07 04:09:28;;;;;;;24.02;15.25;;;;;;;;;;5103482;27;20056;-60
2024/01/07 04:11:55;;;;;;;23.70;14.68;;;;;;;;;;5102918;28;20055;-60
2024/01/07 04:14:21;;;;;;;21.23;15.45;;;;;;;;;;5102958;27;20040;-60
2024/01/07 04:16:48;;;;;;;24.27;15.70;;;;;;;;;;5102625;27;20518;-60
2024/01/07 04:19:14;;;;;;;29.08;16.38;;;;;;;;;;5103157;27;20056;-61
2024/01/07 04:21:45;;;;;;;24.98;16.58;;;;;;;;;;5102347;27;20044;-60
2024/01/07 04:24:12;;;;;;;24.40;15.63;;;;;;;;;;5102765;27;20052;-60
2024/01/07 04:26:38;;;;;;;22.90;15.32;;;;;;;;;;5102747;27;20056;-59
2024/01/07 04:29:04;;;;;;;24.83;15.85;;;;;;;;;;5103537;27;20113;-60
2024/01/07 04:31:31;;;;;;;24.23;15.13;;;;;;;;;;5102482;27;20052;-61
2024/01/07 04:33:57;;;;;;;26.50;16.25;;;;;;;;;;5102558;27;20052;-62
2024/01/07 04:36:24;;;;;;;22.30;14.23;;;;;;;;;;5100871;28;20060;-60
2024/01/07 04:38:50;;;;;;;22.15;14.23;;;;;;;;;;5102534;27;20129;-60
2024/01/07 04:41:17;;;;;;;23.45;14.13;;;;;;;;;;5102853;27;20049;-60
2024/01/07 04:43:43;;;;;;;21.05;13.60;;;;;;;;;;5102334;27;20113;-60
2024/01/07 04:46:10;;;;;;;24.38;14.38;;;;;;;;;;5102433;28;20110;-59
2024/01/07 04:48:37;;;;;;;19.00;13.40;;;;;;;;;;5100859;28;20523;-60
2024/01/07 04:51:03;;;;;;;20.33;13.55;;;;;;;;;;5102767;28;20052;-60
2024/01/07 04:53:30;;;;;;;17.63;11.88;;;;;;;;;;5101595;27;20049;-59
2024/01/07 04:55:56;;;;;;;19.98;11.98;;;;;;;;;;5102550;27;20101;-61
2024/01/07 04:58:23;;;;;;;18.23;12.63;;;;;;;;;;5102355;27;20059;-60
2024/01/07 05:00:49;;;;;;;18.20;11.82;;;;;;;;;;5103240;27;20048;-60
2024/01/07 05:03:16;;;;;;;18.50;12.35;;;;;;;;;;5101833;27;20080;-61
2024/01/07 05:05:42;;;;;;;20.75;12.63;;;;;;;;;;5101951;28;20519;-61
2024/01/07 05:08:09;;;;;;;17.10;11.15;;;;;;;;;;5102189;27;20059;-61
2024/01/07 05:10:35;;;;;;;17.30;11.70;;;;;;;;;;5101786;27;20151;-60
2024/01/07 05:13:06;;;;;;;16.90;11.98;;;;;;;;;;5101823;27;20048;-60
2024/01/07 05:15:33;;;;;;;16.02;11.18;;;;;;;;;;5102361;27;20056;-61
2024/01/07 05:17:59;;;;;;;17.10;11.77;;;;;;;;;;5101128;27;20114;-60
2024/01/07 05:20:26;;;;;;;16.77;12.07;;;;;;;;;;5101387;27;20059;-59
2024/01/07 05:22:53;;;;;;;16.90;11.50;;;;;;;;;;5102930;28;20063;-60
2024/01/07 05:25:19;;;;;;;18.48;12.15;;;;;;;;;;5100894;28;20498;-60
2024/01/07 05:27:45;;;;;;;18.70;12.55;;;;;;;;;;5101988;27;20135;-60
2024/01/07 05:30:12;;;;;;;19.05;12.30;;;;;;;;;;5102110;28;20533;-60
2024/01/07 05:32:38;;;;;;;17.45;11.88;;;;;;;;;;5102332;27;20068;-60
2024/01/07 05:35:05;;;;;;;19.52;12.05;;;;;;;;;;5101378;27;20052;-60
2024/01/07 05:37:31;;;;;;;18.38;11.90;;;;;;;;;;5100955;28;20052;-61
2024/01/07 05:39:58;;;;;;;16.67;11.95;;;;;;;;;;5101599;27;20520;-61
2024/01/07 05:42:24;;;;;;;19.00;12.30;;;;;;;;;;5101528;27;20202;-60
2024/01/07 05:44:51;;;;;;;18.25;11.27;;;;;;;;;;5101643;27;20105;-61
2024/01/07 05:47:18;;;;;;;15.15;11.25;;;;;;;;;;5101437;28;20079;-60
2024/01/07 05:49:44;;;;;;;15.95;11.63;;;;;;;;;;5100817;27;20066;-61
2024/01/07 05:52:11;;;;;;;15.93;11.80;;;;;;;;;;5101702;27;20056;-59
2024/01/07 05:54:37;;;;;;;18.17;12.43;;;;;;;;;;5104200;27;20056;-60
2024/01/07 05:57:04;;;;;;;17.38;12.57;;;;;;;;;;5104778;27;20052;-59
2024/01/07 05:59:30;;;;;;;18.02;12.20;;;;;;;;;;5106732;28;20087;-60
2024/01/07 06:01:59;;;;;;;21.33;13.32;;;;;;;;;;5106725;27;20047;-60
2024/01/07 06:04:26;;;;;;;18.27;13.00;;;;;;;;;;5104776;27;20048;-59
2024/01/07 06:06:53;;;;;;;17.13;11.68;;;;;;;;;;5104682;27;20642;-59
2024/01/07 06:09:20;;;;;;;19.70;12.75;;;;;;;;;;5104886;28;20506;-61
2024/01/07 06:11:46;;;;;;;16.80;12.32;;;;;;;;;;5102814;27;20048;-60
2024/01/07 06:14:13;;;;;;;14.10;11.25;;;;;;;;;;5103359;27;20056;-59
2024/01/07 06:16:39;;;;;;;21.90;12.23;;;;;;;;;;5104680;27;20143;-58
2024/01/07 06:19:06;;;;;;;15.82;11.35;;;;;;;;;;5104799;27;20616;-60
2024/01/07 06:21:33;;;;;;;13.32;10.27;;;;;;;;;;5104735;27;20087;-59
2024/01/07 06:23:59;;;;;;;15.38;10.75;;;;;;;;;;5104402;27;20052;-60
2024/01/07 06:26:25;;;;;;;14.27;10.60;;;;;;;;;;5105530;27;20056;-60
2024/01/07 06:28:52;;;;;;;18.30;11.15;;;;;;;;;;5104293;27;20059;-60
2024/01/07 06:31:19;;;;;;;17.70;11.35;;;;;;;;;;5105410;27;20052;-58
2024/01/07 06:33:45;;;;;;;16.08;11.70;;;;;;;;;;5103166;27;20105;-61
2024/01/07 06:36:12;;;;;;;13.57;10.43;;;;;;;;;;5105291;27;20050;-61
2024/01/07 06:38:38;;;;;;;15.93;11.77;;;;;;;;;;5103611;27;20611;-60
2024/01/07 06:41:05;;;;;;;17.73;12.65;;;;;;;;;;5104437;28;20058;-60
2024/01/07 06:43:32;;;;;;;14.23;11.25;;;;;;;;;;5103944;27;20052;-61
2024/01/07 06:45:58;;;;;;;17.08;11.52;;;;;;;;;;5104365;27;20352;-61
2024/01/07 06:48:25;;;;;;;17.00;11.40;;;;;;;;;;5103582;27;20493;-59
2024/01/07 06:50:52;;;;;;;16.23;11.73;;;;;;;;;;5104327;27;20125;-59
2024/01/07 06:53:18;;;;;;;16.83;11.60;;;;;;;;;;5103872;27;20482;-60
2024/01/07 06:55:44;;;;;;;16.88;10.05;;;;;;;;;;5103704;28;20056;-61
2024/01/07 06:58:11;;;;;;;17.35;12.02;;;;;;;;;;5104663;27;20097;-60
2024/01/07 07:00:37;;;;;;;15.43;11.02;;;;;;;;;;5104212;28;20510;-61
2024/01/07 07:03:05;;;;;;;17.63;12.38;;;;;;;;;;5103667;27;20052;-61
2024/01/07 07:05:32;;;;;;;16.80;11.45;;;;;;;;;;5103499;27;20453;-61
2024/01/07 07:07:58;;;;;;;16.40;11.38;;;;;;;;;;5103743;27;20063;-60
2024/01/07 07:10:25;;;;;;;17.70;11.90;;;;;;;;;;5103567;27;20059;-60
2024/01/07 07:12:51;;;;;;;16.67;12.45;;;;;;;;;;5104259;28;20052;-60
2024/01/07 07:15:18;;;;;;;16.85;11.50;;;;;;;;;;5104207;27;20059;-60
2024/01/07 07:17:45;;;;;;;16.63;11.80;;;;;;;;;;5102817;27;20052;-59
2024/01/07 07:20:11;;;;;;;14.63;10.75;;;;;;;;;;5102616;28;20078;-60
2024/01/07 07:22:38;;;;;;;17.25;11.20;;;;;;;;;;5090524;27;20052;-58
2024/01/07 07:25:05;;;;;;;15.15;10.98;;;;;;;;;;5103410;28;20056;-60
2024/01/07 07:27:32;;;;;;;14.43;9.77;;;;;;;;;;5103214;27;20048;-60
2024/01/07 07:29:58;;;;;;;14.88;11.02;;;;;;;;;;5096272;28;20110;-59
2024/01/07 07:32:25;;;;;;;15.73;10.35;;;;;;;;;;5103329;27;20048;-60
2024/01/07 07:34:51;;;;;;;16.98;10.77;;;;;;;;;;5104295;28;20056;-61
2024/01/07 07:37:18;;;;;;;14.75;10.25;;;;;;;;;;5104253;27;20054;-59
2024/01/07 07:39:47;;;;;;;13.90;10.02;;;;;;;;;;5083792;28;20515;-60
2024/01/07 07:42:13;;;;;;;14.90;10.65;;;;;;;;;;5102911;28;20175;-60
2024/01/07 07:44:39;;;;;;;14.18;10.48;;;;;;;;;;5102547;27;20074;-59
2024/01/07 07:47:07;;;;;;;14.13;10.35;;;;;;;;;;5103508;27;20526;-60
2024/01/07 07:49:35;;;;;;;16.98;11.85;;;;;;;;;;5102353;27;20535;-61
2024/01/07 07:52:02;;;;;;;13.50;10.57;;;;;;;;;;5104319;27;20071;-61
2024/01/07 07:54:29;;;;;;;17.52;11.73;;;;;;;;;;5102707;27;20509;-62
2024/01/07 07:56:58;;;;;;;13.27;10.25;;;;;;;;;;5103565;27;20056;-61
2024/01/07 07:59:24;;;;;;;14.45;10.00;;;;;;;;;;5102721;27;20467;-60
2024/01/07 08:01:50;;;;;;;15.27;9.82;;;;;;;;;;5092447;27;20498;-60
2024/01/07 08:04:17;;;;;;;15.07;10.98;;;;;;;;;;5101032;27;20060;-61
2024/01/07 08:06:45;;;;;;;15.05;10.82;;;;;;;;;;5101406;28;20052;-60
2024/01/07 08:09:11;;;;;;;13.02;10.60;;;;;;;;;;5103178;27;20079;-60
2024/01/07 08:11:37;;;;;;;13.18;9.93;;;;;;;;;;5103722;27;20625;-61
2024/01/07 08:14:06;;;;;;;14.82;9.88;;;;;;;;;;5090741;27;20052;-60
2024/01/07 08:16:33;;;;;;;16.80;10.75;;;;;;;;;;5096040;28;20131;-59
2024/01/07 08:18:59;;;;;;;13.18;10.75;;;;;;;;;;5100892;27;20084;-61
2024/01/07 08:21:27;;;;;;;15.75;10.40;;;;;;;;;;5100987;28;20102;-61
2024/01/07 08:23:53;;;;;;;14.68;10.65;;;;;;;;;;5102488;27;20032;-61
2024/01/07 08:26:20;;;;;;;12.05;10.05;;;;;;;;;;5103548;27;20055;-61
2024/01/07 08:28:46;;;;;;;13.93;10.68;;;;;;;;;;5101257;27;20059;-60
2024/01/07 08:31:13;;;;;;;14.15;11.07;;;;;;;;;;5102652;28;20048;-61
2024/01/07 08:33:39;;;;;;;14.23;10.38;;;;;;;;;;5101424;28;20083;-60
2024/01/07 08:36:06;;;;;;;12.80;9.63;;;;;;;;;;5102886;27;20060;-60
2024/01/07 08:38:32;;;;;;;15.88;10.18;;;;;;;;;;5102955;27;20101;-61
2024/01/07 08:40:59;;;;;;;16.92;10.27;;;;;;;;;;5093686;27;20052;-60
2024/01/07 08:43:25;;;;;;;12.77;8.90;;;;;;;;;;5104685;27;20060;-59
2024/01/07 08:45:52;;;;;;;11.98;8.55;;;;;;;;;;5099992;27;20052;-59
2024/01/07 08:48:18;;;;;;;12.40;9.85;;;;;;;;;;5104249;27;20139;-60
2024/01/07 08:50:46;;;;;;;13.48;8.90;;;;;;;;;;5105073;27;20048;-60
2024/01/07 08:53:12;;;;;;;13.15;9.63;;;;;;;;;;5098813;27;20048;-61
2024/01/07 08:55:39;;;;;;;17.40;8.77;;;;;;;;;;5094972;27;20063;-60
2024/01/07 08:58:06;;;;;;;12.85;9.02;;;;;;;;;;5099795;28;20151;-60
2024/01/07 09:00:33;;;;;;;10.77;8.60;;;;;;;;;;5103129;27;20059;-60
2024/01/07 09:02:59;;;;;;;11.05;9.13;;;;;;;;;;5103971;27;20153;-60
2024/01/07 09:05:26;;;;;;;13.05;9.10;;;;;;;;;;5104778;27;20063;-59
2024/01/07 09:07:53;;;;;;;13.95;9.48;;;;;;;;;;5103919;28;20106;-58
2024/01/07 09:10:20;;;;;;;11.32;8.68;;;;;;;;;;5102981;27;20099;-61
2024/01/07 09:12:47;;;;;;;14.90;9.93;;;;;;;;;;5101502;28;20056;-60
2024/01/07 09:15:14;;;;;;;13.65;9.23;;;;;;;;;;5097121;27;20056;-60
2024/01/07 09:17:40;;;;;;;15.75;9.43;;;;;;;;;;5100214;27;20053;-60
2024/01/07 09:20:08;;;;;;;14.00;9.45;;;;;;;;;;5104632;28;20618;-60
2024/01/07 09:22:35;;;;;;;13.82;9.82;;;;;;;;;;5099490;27;20139;-59
2024/01/07 09:25:03;;;;;;;9.20;7.88;;;;;;;;;;5090924;28;20052;-60
2024/01/07 09:27:30;;;;;;;10.13;7.70;;;;;;;;;;5104106;27;20681;-61
2024/01/07 09:29:56;;;;;;;11.55;8.57;;;;;;;;;;5101937;27;20158;-61
2024/01/07 09:32:23;;;;;;;11.38;8.50;;;;;;;;;;5096385;27;20056;-60
2024/01/07 09:34:49;;;;;;;12.07;8.93;;;;;;;;;;5095990;28;20421;-60
2024/01/07 09:37:16;;;;;;;11.85;8.50;;;;;;;;;;5105960;27;20060;-61
2024/01/07 09:39:44;;;;;;;12.38;8.38;;;;;;;;;;5098672;28;20581;-59
2024/01/07 09:42:14;;;;;;;12.38;8.13;;;;;;;;;;5097351;28;20113;-60
2024/01/07 09:44:42;;;;;;;11.65;8.05;;;;;;;;;;5094786;27;20053;-61
2024/01/07 09:47:12;;;;;;;13.55;7.85;;;;;;;;;;5096010;27;20064;-61
2024/01/07 09:49:39;;;;;;;11.15;8.13;;;;;;;;;;5089651;27;20064;-61
2024/01/07 09:52:07;;;;;;;9.25;6.80;;;;;;;;;;5103487;28;20056;-60
2024/01/07 09:54:35;;;;;;;11.93;6.53;;;;;;;;;;5104747;27;20563;-61
2024/01/07 09:57:02;;;;;;;10.93;6.72;;;;;;;;;;5104472;27;20067;-62
2024/01/07 09:59:29;;;;;;;9.88;6.43;;;;;;;;;;5105222;27;20501;-61
2024/01/07 10:01:56;;;;;;;10.98;7.10;;;;;;;;;;5105131;27;20057;-61
2024/01/07 10:04:23;;;;;;;8.27;5.93;;;;;;;;;;5102759;27;20052;-60
2024/01/07 10:06:50;;;;;;;8.57;6.40;;;;;;;;;;5091255;28;20095;-57
2024/01/07 10:09:17;;;;;;;10.55;6.43;;;;;;;;;;5104958;27;20475;-60
2024/01/07 10:11:43;;;;;;;10.15;5.72;;;;;;;;;;5104961;27;20497;-59
2024/01/07 10:14:10;;;;;;;8.77;5.32;;;;;;;;;;5104726;27;20147;-58
2024/01/07 10:16:36;;;;;;;6.85;5.00;;;;;;;;;;5105062;27;20071;-60
2024/01/07 10:19:03;;;;;;;8.60;5.28;;;;;;;;;;5104744;27;20063;-60
2024/01/07 10:21:29;;;;;;;7.38;4.82;;;;;;;;;;5102140;27;20349;-60
2024/01/07 10:24:10;;;;;;;8.60;4.57;;;;;;;;;;5100328;28;20143;-59
2024/01/07 10:26:40;;;;;;;6.43;4.57;;;;;;;;;;5104793;27;20060;-60
2024/01/07 10:29:08;;;;;;;5.45;4.40;;;;;;;;;;5105276;27;20060;-60
2024/01/07 10:31:34;;;;;;;8.23;4.05;;;;;;;;;;5104252;27;20141;-59
2024/01/07 10:34:01;;;;;;;7.15;4.32;;;;;;;;;;5103243;27;20110;-60
2024/01/07 10:36:28;;;;;;;5.90;4.28;;;;;;;;;;5103666;28;20601;-60
2024/01/07 10:38:55;;;;;;;5.45;3.92;;;;;;;;;;5097179;27;20585;-60
2024/01/07 10:41:23;;;;;;;5.68;4.03;;;;;;;;;;5091066;27;20401;-60
2024/01/07 10:43:50;;;;;;;7.30;4.30;;;;;;;;;;5101976;27;20144;-59
2024/01/07 10:46:17;;;;;;;4.13;3.63;;;;;;;;;;5101049;28;20056;-61
2024/01/07 10:48:46;;;;;;;5.97;3.58;;;;;;;;;;5094925;27;20056;-60
2024/01/07 10:51:14;;;;;;;7.47;3.90;;;;;;;;;;5088627;27;20055;-60
2024/01/07 10:53:43;;;;;;;5.90;3.70;;;;;;;;;;5106412;27;20174;-59
2024/01/07 10:56:11;;;;;;;8.52;3.42;;;;;;;;;;5096954;27;20125;-61
2024/01/07 10:58:39;;;;;;;6.70;3.22;;;;;;;;;;5103271;28;20126;-60
2024/01/07 11:01:07;;;;;;;6.10;3.70;;;;;;;;;;5104711;27;20140;-60
2024/01/07 11:03:51;;;;;;;5.80;4.00;;;;;;;;;;5103795;27;20052;-60
2024/01/07 11:06:17;;;;;;;6.90;4.00;;;;;;;;;;5104812;27;20059;-60
2024/01/07 11:08:52;;;;;;;5.75;3.28;;;;;;;;;;5102834;27;20048;-60
2024/01/07 11:11:25;;;;;;;5.32;3.63;;;;;;;;;;5104158;27;20677;-59
2024/01/07 11:13:51;;;;;;;4.70;3.88;;;;;;;;;;5096742;27;20133;-59
2024/01/07 11:16:41;;;;;;;4.50;3.70;;;;;;;;;;5103553;27;20506;-60
2024/01/07 11:19:07;;;;;;;4.30;3.25;;;;;;;;;;5104777;27;20056;-60
2024/01/07 11:21:34;;;;;;;8.25;3.97;;;;;;;;;;5103768;27;20048;-61
2024/01/07 11:24:00;;;;;;;4.13;3.15;;;;;;;;;;5099022;28;20439;-60
2024/01/07 11:26:30;;;;;;;4.63;3.47;;;;;;;;;;5103494;27;20079;-59
2024/01/07 11:28:57;;;;;;;5.78;2.80;;;;;;;;;;5103579;27;20052;-60
2024/01/07 11:31:39;;;;;;;4.97;2.97;;;;;;;;;;5093288;27;20473;-61
2024/01/07 11:34:06;;;;;;;4.35;3.38;;;;;;;;;;5103897;28;20430;-60
2024/01/07 11:36:35;;;;;;;4.90;3.00;;;;;;;;;;5101516;27;20056;-61
2024/01/07 11:39:03;;;;;;;3.97;2.80;;;;;;;;;;5103388;27;20194;-58
2024/01/07 11:41:33;;;;;;;3.25;2.70;;;;;;;;;;5102807;27;20052;-59
2024/01/07 11:44:00;;;;;;;3.97;2.95;;;;;;;;;;5102721;28;20056;-60
2024/01/07 11:46:32;;;;;;;3.85;2.75;;;;;;;;;;5101391;27;20052;-60
2024/01/07 11:48:59;;;;;;;5.13;2.75;;;;;;;;;;5091779;27;20062;-60
2024/01/07 11:51:26;;;;;;;4.72;2.92;;;;;;;;;;5100337;27;20117;-61
2024/01/07 11:53:53;;;;;;;5.20;2.45;;;;;;;;;;5103522;27;20055;-60
2024/01/07 11:56:19;;;;;;;4.32;2.80;;;;;;;;;;5103293;27;20080;-60
2024/01/07 11:58:46;;;;;;;4.03;2.17;;;;;;;;;;5102949;27;20114;-61
2024/01/07 12:01:14;;;;;;;3.13;2.00;;;;;;;;;;5100225;27;20163;-60
2024/01/07 12:03:43;;;;;;;3.10;2.42;;;;;;;;;;5087516;28;20076;-60
2024/01/07 12:06:13;;;;;;;3.03;2.40;;;;;;;;;;5084631;28;20056;-59
2024/01/07 12:08:41;;;;;;;3.78;2.03;;;;;;;;;;5097538;28;20056;-58
2024/01/07 12:11:08;;;;;;;3.47;2.17;;;;;;;;;;5102134;27;20462;-60
2024/01/07 12:13:35;;;;;;;3.15;2.00;;;;;;;;;;5100265;28;20055;-60
2024/01/07 12:16:02;;;;;;;2.78;2.17;;;;;;;;;;5104131;27;20052;-60
2024/01/07 12:18:29;;;;;;;3.90;2.35;;;;;;;;;;5101106;27;20104;-61
2024/01/07 12:20:57;;;;;;;2.70;1.90;;;;;;;;;;5093527;28;20493;-60
2024/01/07 12:23:25;;;;;;;3.50;2.15;;;;;;;;;;5096173;28;20135;-59
2024/01/07 12:25:55;;;;;;;2.65;1.92;;;;;;;;;;5104976;27;20567;-60
2024/01/07 12:28:22;;;;;;;3.92;1.70;;;;;;;;;;5090427;27;20056;-60
2024/01/07 12:30:49;;;;;;;2.35;2.10;;;;;;;;;;5102458;28;20052;-60
2024/01/07 12:33:19;;;;;;;2.30;1.83;;;;;;;;;;5101525;27;20055;-60
2024/01/07 12:35:46;;;;;;;2.80;1.88;;;;;;;;;;5095835;28;20101;-58
2024/01/07 12:38:12;;;;;;;2.55;2.22;;;;;;;;;;5096076;27;20049;-61
2024/01/07 12:40:39;;;;;;;2.72;1.70;;;;;;;;;;5102046;27;20056;-60
2024/01/07 12:43:08;;;;;;;3.00;1.85;;;;;;;;;;5093325;28;20060;-60
2024/01/07 12:45:35;;;;;;;2.90;2.10;;;;;;;;;;5104742;27;20506;-59
2024/01/07 12:48:02;;;;;;;1.85;1.50;;;;;;;;;;5105521;27;20083;-60
2024/01/07 12:50:32;;;;;;;2.47;1.33;;;;;;;;;;5103626;27;20593;-59
2024/01/07 12:52:59;;;;;;;2.78;1.73;;;;;;;;;;5104704;27;20122;-61
2024/01/07 12:55:26;;;;;;;2.85;2.15;;;;;;;;;;5103313;27;20135;-58
2024/01/07 12:57:54;;;;;;;2.08;1.63;;;;;;;;;;5103768;28;20060;-60
2024/01/07 13:00:21;;;;;;;2.38;2.00;;;;;;;;;;5103420;27;20058;-60
2024/01/07 13:02:48;;;;;;;2.80;1.83;;;;;;;;;;5102545;27;20055;-61
2024/01/07 13:05:14;;;;;;;2.38;1.90;;;;;;;;;;5102212;27;20511;-61
2024/01/07 13:07:41;;;;;;;2.60;1.98;;;;;;;;;;5106176;27;20124;-61
2024/01/07 13:10:09;;;;;;;2.28;2.00;;;;;;;;;;5106308;27;20098;-59
2024/01/07 13:12:36;;;;;;;3.63;1.70;;;;;;;;;;5094427;27;20163;-60
2024/01/07 13:15:14;;;;;;;2.38;1.92;;;;;;;;;;5092489;28;20056;-59
2024/01/07 13:17:43;;;;;;;2.80;1.60;;;;;;;;;;5103131;27;20502;-60
2024/01/07 13:20:11;;;;;;;1.70;1.55;;;;;;;;;;5105433;28;20052;-58
2024/01/07 13:22:38;;;;;;;3.72;1.80;;;;;;;;;;5081668;28;20052;-60
2024/01/07 13:25:05;;;;;;;2.08;1.52;;;;;;;;;;5105940;27;20054;-60
2024/01/07 13:27:32;;;;;;;2.42;1.85;;;;;;;;;;5104375;27;20502;-60
2024/01/07 13:30:01;;;;;;;3.85;2.45;;;;;;;;;;5104164;27;20106;-60
2024/01/07 13:32:27;;;;;;;5.50;2.50;;;;;;;;;;5104181;27;20523;-61
2024/01/07 13:34:54;;;;;;;2.60;2.40;;;;;;;;;;5104500;27;20067;-60
2024/01/07 13:37:21;;;;;;;5.85;4.68;;;;;;;;;;5104069;27;20055;-59
2024/01/07 13:39:49;;;;;;;12.35;8.68;;;;;;;;;;5104734;27;20063;-60
2024/01/07 13:42:16;;;;;;;6.15;3.22;;;;;;;;;;5105258;27;20131;-58
2024/01/07 13:44:46;;;;;;;2.47;2.25;;;;;;;;;;5105000;27;20597;-60
2024/01/07 13:47:16;;;;;;;2.70;2.20;;;;;;;;;;5104411;27;20362;-60
2024/01/07 13:49:43;;;;;;;3.55;2.60;;;;;;;;;;5102512;28;20134;-60
2024/01/07 13:52:10;;;;;;;3.03;1.70;;;;;;;;;;5099188;27;20048;-60
2024/01/07 13:54:39;;;;;;;3.13;2.58;;;;;;;;;;5104500;27;20081;-59
2024/01/07 13:57:06;;;;;;;4.13;3.42;;;;;;;;;;5104346;27;20419;-60
2024/01/07 13:59:33;;;;;;;5.75;4.15;;;;;;;;;;5103947;27;20054;-59
2024/01/07 14:01:59;;;;;;;7.88;6.05;;;;;;;;;;5104135;27;20092;-60
2024/01/07 14:04:26;;;;;;;11.68;3.42;;;;;;;;;;5104784;27;20504;-60
2024/01/07 14:06:58;;;;;;;6.40;4.95;;;;;;;;;;5105395;28;20052;-59
2024/01/07 14:09:25;;;;;;;14.35;6.07;;;;;;;;;;5103804;27;20086;-60
2024/01/07 14:11:52;;;;;;;3.58;2.20;;;;;;;;;;5105236;27;20059;-60
2024/01/07 14:14:21;;;;;;;3.55;1.67;;;;;;;;;;5104113;27;20376;-60
2024/01/07 14:16:48;;;;;;;2.53;1.80;;;;;;;;;;5103716;27;20052;-60
2024/01/07 14:19:16;;;;;;;2.28;1.50;;;;;;;;;;5102890;27;20146;-61
2024/01/07 14:21:43;;;;;;;2.13;1.55;;;;;;;;;;5103113;27;20062;-60
2024/01/07 14:24:10;;;;;;;4.32;1.63;;;;;;;;;;5103845;27;20142;-59
2024/01/07 14:26:36;;;;;;;2.45;1.70;;;;;;;;;;5105332;28;20059;-61